Depok
Home > Kaskuser Regional > INDONESIA > JABAR, DKI & BANTEN > Depok > ▓▓▒▒ Radar Cuaca JABODETABEK dan Sekitarnya™ ▒▒▓▓
Total Views: 4268 Share : Facebook ShareFacebook Twitter ShareTwitter Google+ ShareGoogle+
Page 5 of 21 |  < 1 2 3 4 5 6 7 8 9 10 >  Last ›

dianabazz - 21/03/2012 07:12 AM
#81

▓▓▒▒ Radar Cuaca JABODETABEK dan Sekitarnya™ ▒▒▓▓
dianabazz - 21/03/2012 07:14 AM
#82

T A F O R



TAF WIII 202300Z 2100/2206 24010KT 5000 HZ FEW020CB SCT020 BECMG 2100/2102 27010KT BECMG 2106/2108 23010KT TEMPO 2118/2123 5000 HZ SCT020 BECMG 2200/2202 25010KT 8000 SCT020=



Bingung cara bacanya???bingungs
klik aja Cara membaca TAFOR
atau menggunakan decoder diSINI
tapi jangan lupa untuk membuang "TAF" di awal dan "=" di akhir



kimbo - 21/03/2012 08:55 AM
#83

Pasar Rebo dan sekitarnya cerah dan gerah...
walaupun agak berangin... \)
dianabazz - 22/03/2012 11:47 AM
#84

Quote:
Original Posted By kimbo
Pasar Rebo dan sekitarnya cerah dan gerah...
walaupun agak berangin... \)

treimakasih atas bantuannya \)



T A F O R



TAF WIII 212300Z 2200/2306 25005KT 4000 BR FEW020 BECMG 2202/2204 24010KT 9999 SCT022 BECMG 2210/2212 24005KT 4000 BR FEW020=



Bingung cara bacanya???bingungs
klik aja Cara membaca TAFOR
atau menggunakan decoder diSINI
tapi jangan lupa untuk membuang "TAF" di awal dan "=" di akhir




dianabazz - 25/03/2012 02:46 PM
#85

T A F O R



TAF WIII 250525Z 2506/2612 33010KT 9999 SCT020 BECMG 2512/2514 26008KT 7000=




Bingung cara bacanya???
klik aja Cara membaca TAFOR
atau menggunakan decoder diSINI
tapi jangan lupa untuk membuang "TAF" di awal dan "=" di akhir
dianabazz - 25/03/2012 02:48 PM
#86

▓▓▒▒ Radar Cuaca JABODETABEK dan Sekitarnya™ ▒▒▓▓
dianabazz - 25/03/2012 02:49 PM
#87

▓▓▒▒ Radar Cuaca JABODETABEK dan Sekitarnya™ ▒▒▓▓
dianabazz - 26/03/2012 12:27 PM
#88

T A F O R



TAF WIII 252300Z 2600/2706 26005KT 8000 SCT020 BECMG 2604/2606 32010KT 9999 BECMG 2612/2614 28006KT 7000=




Bingung cara bacanya???
klik aja Cara membaca TAFOR
atau menggunakan decoder diSINI
tapi jangan lupa untuk membuang "TAF" di awal dan "=" di akhir


dianabazz - 26/03/2012 12:28 PM
#89

▓▓▒▒ Radar Cuaca JABODETABEK dan Sekitarnya™ ▒▒▓▓
dianabazz - 27/03/2012 06:09 PM
#90

T A F O R



TAF AMD WIII 270800Z 2708/2812 33010KT 9000 SCT020 TEMPO 2708/2711 7000 TSRA FEW020CB BECMG 2711/2713 26010KT 7000 TEMPO 2718/2723 4000 BR SCT020 BECMG 2723/2801 26008KT 8000 SCT020 BECMG 2803/2805 33010KT SCT020 BECMG 2810/2812 FEW020CB SCT020=



Bingung cara bacanya???bingungs
klik aja Cara membaca TAFOR
atau menggunakan decoder diSINI
tapi jangan lupa untuk membuang "TAF" di awal dan "=" di akhir




dianabazz - 27/03/2012 06:10 PM
#91

▓▓▒▒ Radar Cuaca JABODETABEK dan Sekitarnya™ ▒▒▓▓
dianabazz - 28/03/2012 11:31 PM
#92

Peringatan Dini Cuaca Jabodetabek :

Update : 28 Maret 2012 pukul 21.30 WIB :

[1].Waspada hujan dengan intensitas sedang-lebat disertai kilat/petir dan angin kencang berdurasi singkat pukul 22.30 WIB di wilayah Ciawi, Bogor, Gunung Putri, Cileungsi, Depok, Lenteng Agung, Tanjung Barat, Pondok Cabe, Bintaro, Pondok Betung, Bambu Apus, Pondok Gede, Halim, Jatinegara, Klender, Ps.Minggu, Klender,Jatinegara, Tebet, Senayan, Tanah Abang, Setiabudi, Menteng, Matraman, Rawamangun, Cempaka Putih, Senen, Gambir, Kemayoran, Sawah Besar, Ancol, Tanjung Periok, Cakung, Bekasi dan sekitarnya.

[2].Kondisi ini diperkirakan masih berlangsung hingga pukul 01.30 WIB dan meluas ke wilayah Ciledug, Srengseng, Kebon Jeruk, Tomang, Grogol, Cengkareng, Kapuk, Pluit, Kalideres, Tangerang dan sekitarnya.
dianabazz - 28/03/2012 11:32 PM
#93

▓▓▒▒ Radar Cuaca JABODETABEK dan Sekitarnya™ ▒▒▓▓
dianabazz - 30/03/2012 05:40 PM
#94

T A F O R



TAF WIII 292300Z 3000/3106 26005KT 8000 SCT020 BECMG 3004/3006 33010KT 9999 TEMPO 3007/3010 25006KT 6000 RA BKN020 BECMG 3012/3014 26005KT 7000 BECMG 3018/3020 24005KT 6000=



Bingung cara bacanya???bingungs
klik aja Cara membaca TAFOR
atau menggunakan decoder diSINI
tapi jangan lupa untuk membuang "TAF" di awal dan "=" di akhir






dianabazz - 30/03/2012 05:42 PM
#95

▓▓▒▒ Radar Cuaca JABODETABEK dan Sekitarnya™ ▒▒▓▓
dianabazz - 31/03/2012 08:35 AM
#96

▓▓▒▒ Radar Cuaca JABODETABEK dan Sekitarnya™ ▒▒▓▓
dianabazz - 31/03/2012 08:36 AM
#97

T A F O R



TAF WIII 302300Z 3100/0106 28010KT 9999 FEW023 BECMG 3112/3114 20005KT 8000 SCT020=



Bingung cara bacanya???bingungs
klik aja Cara membaca TAFOR
atau menggunakan decoder diSINI
tapi jangan lupa untuk membuang "TAF" di awal dan "=" di akhir








dianabazz - 31/03/2012 08:38 AM
#98

▓▓▒▒ Radar Cuaca JABODETABEK dan Sekitarnya™ ▒▒▓▓
mangudel™ - 01/04/2012 06:31 PM
#99

Depok hujan hari ini dian D
prakiraan cuaca na tepat nih wowcantik
dianabazz - 01/04/2012 06:40 PM
#100

Quote:
Original Posted By mangudel™
Depok hujan hari ini dian D
prakiraan cuaca na tepat nih wowcantik


alhamdulillah sukur bilaman tepat kak \)
klo nak langganan cuaca masalah peringatan dini kirim email kosong ke alamat di post 1 kak \)




T A F O R



TAF WIII 010500Z 0106/0212 34008KT 9000 FEW022 BECMG 0106/0108 24006KT SCT022BECMG 0114/0112 4000 BR FEW022 BECMG 0200/0202 VRB04KT 7000=



Bingung cara bacanya???bingungs
klik aja Cara membaca TAFOR
atau menggunakan decoder diSINI
tapi jangan lupa untuk membuang "TAF" di awal dan "=" di akhir






Page 5 of 21 |  < 1 2 3 4 5 6 7 8 9 10 >  Last ›
Home > Kaskuser Regional > INDONESIA > JABAR, DKI & BANTEN > Depok > ▓▓▒▒ Radar Cuaca JABODETABEK dan Sekitarnya™ ▒▒▓▓